Time;durP1;ratioP1;P1;durP2;ratioP2;P2;SDS_P1;SDS_P2;PMS_P1;PMS_P2;Temp;Humidity;BMP_temperature;BMP_pressure;BME280_temperature;BME280_humidity;BME280_pressure;Samples;Min_cycle;Max_cycle;Signal;HPM_P1;HPM_P2
2022/04/26 03:37:05;;;;;;;14.70;5.60;;;;;;;5.98;56.67;101631.44;5061755;28;20033;-77
2022/04/26 04:44:58;;;;;;;5.13;3.17;;;;;;;5.86;55.60;101655.75;5045024;28;20079;-79
2022/04/26 04:48:09;;;;;;;8.25;3.55;;;;;;;5.84;55.81;101657.50;5021247;28;20267;-80
2022/04/26 04:50:36;;;;;;;14.40;4.65;;;;;;;5.87;55.50;101665.25;5048186;28;20060;-79
2022/04/26 04:53:02;;;;;;;17.15;3.58;;;;;;;6.06;55.34;101671.13;5025156;28;20040;-83
2022/04/26 04:55:28;;;;;;;13.10;4.03;;;;;;;6.16;54.97;101674.53;5030623;28;20178;-78
2022/04/26 04:57:53;;;;;;;15.10;6.57;;;;;;;6.36;54.57;101680.41;5041035;28;20073;-79
2022/04/26 05:00:19;;;;;;;16.77;4.95;;;;;;;6.34;54.29;101689.97;5050173;28;20021;-77
2022/04/26 05:02:45;;;;;;;13.18;3.88;;;;;;;6.15;54.31;101685.75;5046757;28;20049;-79
2022/04/26 05:05:11;;;;;;;8.63;2.92;;;;;;;6.11;54.79;101686.69;5060126;28;20032;-78
2022/04/26 05:07:37;;;;;;;10.38;3.70;;;;;;;6.17;54.54;101689.22;5027751;28;20099;-77
2022/04/26 05:10:04;;;;;;;9.27;3.15;;;;;;;6.52;52.93;101690.66;5024503;28;20033;-78
2022/04/26 05:12:30;;;;;;;15.43;3.85;;;;;;;6.26;53.59;101700.41;5024177;28;20045;-78
2022/04/26 05:14:59;;;;;;;11.43;3.58;;;;;;;6.38;53.50;101689.06;5042851;28;20175;-77
2022/04/26 05:17:27;;;;;;;12.27;3.78;;;;;;;6.56;52.80;101694.97;5039452;28;20096;-78
2022/04/26 05:19:52;;;;;;;6.53;3.28;;;;;;;6.61;52.75;101700.97;5055056;28;20331;-78
2022/04/26 05:22:18;;;;;;;14.85;3.88;;;;;;;6.42;53.28;101700.28;5038715;28;20044;-78
2022/04/26 05:24:59;;;;;;;16.88;3.95;;;;;;;6.65;53.13;101707.84;5024216;28;20033;-75
2022/04/26 05:27:27;;;;;;;9.57;3.08;;;;;;;6.69;52.30;101697.41;5041894;28;20041;-78
2022/04/26 05:29:54;;;;;;;13.23;3.55;;;;;;;6.47;53.11;101704.53;5044338;28;20068;-77
2022/04/26 05:32:24;;;;;;;11.05;3.65;;;;;;;6.59;53.51;101707.91;5033677;28;20070;-79
2022/04/26 05:34:56;;;;;;;8.20;3.15;;;;;;;6.92;52.42;101714.47;5042577;28;20044;-78
2022/04/26 05:37:21;;;;;;;13.43;3.75;;;;;;;6.85;52.28;101718.88;5043051;28;20384;-78
2022/04/26 05:39:47;;;;;;;10.18;2.47;;;;;;;7.12;51.77;101719.44;5043208;28;20545;-78
2022/04/26 05:42:13;;;;;;;11.18;3.33;;;;;;;7.16;51.35;101715.94;5028693;28;20036;-78
2022/04/26 05:44:38;;;;;;;10.75;2.95;;;;;;;6.96;51.58;101712.72;5060110;28;20037;-78
2022/04/26 05:47:07;;;;;;;14.27;3.08;;;;;;;6.78;52.45;101721.59;5042798;28;20037;-80
2022/04/26 05:49:33;;;;;;;5.88;2.83;;;;;;;6.95;52.25;101726.56;5046846;28;20584;-77
2022/04/26 05:51:59;;;;;;;21.67;4.13;;;;;;;6.66;52.94;101725.13;5026738;28;20056;-77
2022/04/26 05:54:25;;;;;;;11.13;2.42;;;;;;;6.60;53.16;101730.41;5044695;28;20060;-78
2022/04/26 05:56:52;;;;;;;10.60;2.88;;;;;;;6.94;52.07;101719.66;5042764;28;20075;-77
2022/04/26 05:59:18;;;;;;;7.50;3.08;;;;;;;6.63;52.82;101730.38;5044453;28;20140;-77
2022/04/26 06:01:44;;;;;;;9.00;2.97;;;;;;;7.44;50.31;101725.97;5044846;28;20346;-79
2022/04/26 06:04:10;;;;;;;5.70;2.67;;;;;;;8.14;48.68;101727.59;5050379;28;20049;-76
2022/04/26 06:06:35;;;;;;;13.27;2.92;;;;;;;8.33;48.14;101730.72;5033801;28;20029;-77
2022/04/26 06:09:02;;;;;;;6.22;2.72;;;;;;;11.25;42.09;101723.25;5041377;28;20053;-79
2022/04/26 06:11:27;;;;;;;8.85;1.90;;;;;;;11.42;39.73;101726.22;5030985;28;20491;-80
2022/04/26 06:13:53;;;;;;;13.95;3.15;;;;;;;11.41;39.79;101724.50;5027871;28;20139;-78
2022/04/26 06:16:19;;;;;;;15.18;2.25;;;;;;;11.13;40.44;101728.81;5059441;28;20037;-79
2022/04/26 06:18:45;;;;;;;7.57;2.33;;;;;;;9.96;42.59;101737.94;5029760;28;20124;-79
2022/04/26 06:21:10;;;;;;;7.65;2.10;;;;;;;10.15;42.53;101740.13;5045080;28;20071;-78
2022/04/26 06:23:37;;;;;;;11.07;2.03;;;;;;;9.23;44.46;101729.97;5046555;28;20040;-82
2022/04/26 06:26:04;;;;;;;13.63;2.63;;;;;;;8.61;45.90;101732.03;5039744;28;20056;-79
2022/04/26 06:28:30;;;;;;;6.25;2.85;;;;;;;8.59;45.47;101736.41;5039935;28;20492;-79
2022/04/26 06:30:56;;;;;;;11.57;2.20;;;;;;;8.39;46.55;101742.81;5030562;28;20055;-78
2022/04/26 06:33:21;;;;;;;10.88;2.70;;;;;;;7.85;47.40;101743.66;5059879;28;20549;-79
2022/04/26 06:35:47;;;;;;;6.72;2.00;;;;;;;7.58;48.98;101749.22;5032182;28;20037;-77
2022/04/26 06:38:12;;;;;;;3.85;1.60;;;;;;;7.92;47.72;101752.25;5026261;28;20049;-77
2022/04/26 06:40:38;;;;;;;9.55;2.05;;;;;;;7.31;49.91;101754.75;5026693;28;20504;-76
2022/04/26 06:43:04;;;;;;;8.05;2.38;;;;;;;7.26;49.70;101753.94;5060579;28;20033;-78
2022/04/26 06:45:29;;;;;;;4.40;1.95;;;;;;;7.67;48.80;101754.34;5032521;28;20031;-79
2022/04/26 06:47:55;;;;;;;7.80;1.85;;;;;;;7.94;48.66;101760.88;5027458;28;20407;-79
2022/04/26 06:50:21;;;;;;;12.25;2.40;;;;;;;7.81;48.21;101762.81;5060696;28;20045;-77
2022/04/26 06:52:48;;;;;;;7.82;1.77;;;;;;;8.13;47.77;101758.84;5030500;28;20045;-77
2022/04/26 06:55:13;;;;;;;7.75;1.77;;;;;;;7.97;47.42;101758.22;5045093;28;20507;-77
2022/04/26 06:57:40;;;;;;;13.27;1.73;;;;;;;8.10;47.13;101759.75;5027489;28;20044;-77
2022/04/26 07:00:07;;;;;;;5.55;1.95;;;;;;;8.16;46.62;101764.03;5043531;28;20116;-79
2022/04/26 07:02:33;;;;;;;7.25;1.50;;;;;;;8.33;46.52;101767.19;5027463;28;20044;-79
2022/04/26 07:04:59;;;;;;;9.15;1.77;;;;;;;9.35;45.91;101761.00;5032133;28;20025;-77
2022/04/26 07:07:25;;;;;;;5.85;1.52;;;;;;;9.29;44.13;101774.16;5030485;28;20503;-78
2022/04/26 07:09:50;;;;;;;6.28;1.58;;;;;;;8.91;43.76;101765.34;5029455;28;20048;-78
2022/04/26 07:12:16;;;;;;;6.18;1.95;;;;;;;9.56;42.70;101764.91;5063295;28;20669;-78
2022/04/26 07:14:42;;;;;;;8.82;1.65;;;;;;;9.98;42.56;101770.09;5030177;28;20027;-78
2022/04/26 07:17:08;;;;;;;10.90;1.55;;;;;;;9.68;41.68;101774.25;5062838;28;20048;-78
2022/04/26 07:19:35;;;;;;;5.63;1.65;;;;;;;9.68;41.99;101773.34;5030354;28;20027;-76
2022/04/26 07:22:03;;;;;;;9.63;1.20;;;;;;;9.34;42.85;101769.75;5047418;28;22359;-77
2022/04/26 07:24:32;;;;;;;3.78;1.48;;;;;;;9.06;43.80;101765.97;5051229;28;20071;-76
2022/04/26 07:26:58;;;;;;;6.85;1.10;;;;;;;9.47;42.80;101772.09;5061112;28;20025;-77
2022/04/26 07:29:24;;;;;;;7.28;1.80;;;;;;;9.32;42.82;101771.53;5036504;28;20570;-80
2022/04/26 07:31:49;;;;;;;8.38;1.42;;;;;;;9.70;42.60;101777.69;5031510;28;20051;-79
2022/04/26 07:34:21;;;;;;;7.05;2.63;;;;;;;9.87;41.71;101779.94;5047356;28;20037;-79
2022/04/26 07:36:54;;;;;;;4.57;1.65;;;;;;;11.07;39.50;101773.50;5046075;28;20040;-79
2022/04/26 07:39:20;;;;;;;7.00;2.10;;;;;;;10.70;39.30;101772.69;5051877;28;20072;-79
2022/04/26 07:41:47;;;;;;;9.23;2.25;;;;;;;9.92;40.84;101779.81;5044022;28;20655;-78
2022/04/26 07:44:13;;;;;;;7.10;2.35;;;;;;;9.89;40.28;101788.59;5057904;28;20057;-77
2022/04/26 07:46:40;;;;;;;5.63;1.65;;;;;;;9.24;42.40;101786.47;5056010;28;20021;-77
2022/04/26 07:53:24;;;;;;;7.13;2.15;;;;;;;10.16;40.39;101787.09;5035572;28;20083;-78
2022/04/26 07:55:50;;;;;;;10.77;2.75;;;;;;;10.54;39.54;101792.28;5024982;28;20127;-75
2022/04/26 07:58:16;;;;;;;7.20;2.38;;;;;;;10.72;39.18;101790.94;5024695;28;20045;-76
2022/04/26 08:00:41;;;;;;;4.15;1.77;;;;;;;10.29;39.37;101800.72;5024465;28;20070;-77
2022/04/26 08:03:07;;;;;;;4.88;2.00;;;;;;;10.28;39.85;101795.53;5008837;28;20044;-80
2022/04/26 08:05:33;;;;;;;6.13;2.28;;;;;;;9.66;40.75;101799.53;5024586;28;20033;-77
2022/04/26 08:08:56;;;;;;;3.97;1.70;;;;;;;9.25;41.79;101811.63;5060896;28;20408;-78
2022/04/26 08:11:28;;;;;;;7.80;1.90;;;;;;;9.24;41.35;101815.16;5026607;28;20060;-76
2022/04/26 08:13:54;;;;;;;5.50;1.80;;;;;;;9.34;41.64;101815.81;5021200;28;20053;-76
2022/04/26 08:16:20;;;;;;;8.75;1.90;;;;;;;9.27;41.29;101819.44;5018992;28;20483;-77
2022/04/26 08:18:46;;;;;;;8.57;2.40;;;;;;;8.61;43.16;101833.66;5043302;28;20556;-78
2022/04/26 08:21:15;;;;;;;3.83;2.00;;;;;;;8.80;43.30;101832.47;5040992;28;20164;-77
2022/04/26 08:29:12;;;;;;;8.43;2.33;;;;;;;10.33;39.96;101827.66;5067106;28;20053;-78
2022/04/26 08:31:39;;;;;;;4.18;1.23;;;;;;;9.98;40.08;101840.63;5047903;28;20040;-79
2022/04/26 08:34:05;;;;;;;11.15;3.03;;;;;;;10.55;38.52;101843.69;5031606;28;20048;-79
2022/04/26 08:36:31;;;;;;;5.63;1.83;;;;;;;11.04;38.41;101851.16;5055098;28;20041;-78
2022/04/26 08:38:57;;;;;;;7.68;1.90;;;;;;;11.43;37.68;101842.25;5051051;28;20850;-80
2022/04/26 08:41:23;;;;;;;4.93;1.75;;;;;;;11.11;36.88;101851.00;5033144;28;20029;-78
2022/04/26 08:43:49;;;;;;;4.22;2.15;;;;;;;11.23;37.73;101855.91;5032314;28;20145;-79
2022/04/26 09:31:37;;;;;;;4.72;1.25;;;;;;;12.61;32.83;101870.13;5050085;28;20043;-78
2022/04/26 09:34:11;;;;;;;7.57;2.33;;;;;;;13.01;32.55;101867.97;5067672;28;20745;-78
2022/04/26 09:36:50;;;;;;;4.05;1.55;;;;;;;12.66;33.28;101872.59;5052439;28;20191;-78
2022/04/26 09:39:20;;;;;;;3.80;1.55;;;;;;;12.47;33.87;101865.34;5060543;28;20033;-79
2022/04/26 09:41:50;;;;;;;6.57;1.83;;;;;;;12.81;32.75;101866.03;5067499;28;20157;-79
2022/04/26 09:44:17;;;;;;;6.60;2.35;;;;;;;12.76;33.12;101870.56;5031237;28;20048;-78
2022/04/26 09:46:42;;;;;;;3.38;1.40;;;;;;;13.02;33.47;101874.94;5039414;28;20033;-77
2022/04/26 09:49:10;;;;;;;5.00;1.80;;;;;;;13.07;33.68;101866.00;5066258;28;20040;-80
2022/04/26 09:51:39;;;;;;;11.82;1.55;;;;;;;13.57;31.31;101865.13;5034947;28;20044;-78
2022/04/26 09:54:06;;;;;;;6.68;1.77;;;;;;;13.20;32.09;101876.91;5048959;28;20686;-78
2022/04/26 09:56:32;;;;;;;4.47;1.52;;;;;;;13.60;32.43;101874.66;5034742;28;20518;-78
2022/04/26 09:59:00;;;;;;;13.75;1.85;;;;;;;13.48;32.38;101871.53;5034893;28;20053;-78
2022/04/26 10:01:40;;;;;;;4.28;1.35;;;;;;;14.09;31.46;101864.91;5034167;28;20419;-77
2022/04/26 10:04:08;;;;;;;7.10;1.40;;;;;;;13.77;31.32;101871.41;5025862;28;20037;-77
2022/04/26 10:06:36;;;;;;;4.38;1.70;;;;;;;13.55;31.22;101872.16;5044529;28;20103;-77
2022/04/26 10:09:08;;;;;;;2.25;1.50;;;;;;;13.36;31.04;101871.13;5039674;28;20044;-78
2022/04/26 10:11:33;;;;;;;;;;;;;;;13.81;30.85;101868.59;5040929;28;20084;-78
2022/04/26 10:14:02;;;;;;;3.42;1.77;;;;;;;13.41;31.31;101871.81;5069176;28;20019;-78
2022/04/26 10:16:28;;;;;;;9.10;2.30;;;;;;;13.37;32.05;101884.19;5056191;28;20036;-78
2022/04/26 10:19:07;;;;;;;4.65;1.90;;;;;;;13.19;32.01;101875.22;5020827;28;20166;-77
2022/04/26 10:21:35;;;;;;;5.28;1.52;;;;;;;13.13;31.21;101887.69;5043159;28;20028;-78
2022/04/26 10:24:01;;;;;;;5.25;1.33;;;;;;;12.55;32.54;101885.22;5023533;28;20170;-78
2022/04/26 10:26:28;;;;;;;4.22;1.55;;;;;;;12.68;32.32;101881.28;5075300;28;20080;-77
2022/04/26 10:29:02;;;;;;;5.53;1.20;;;;;;;12.78;32.09;101885.38;5041531;28;20041;-78
2022/04/26 10:31:58;;;;;;;2.92;1.33;;;;;;;13.46;32.07;101891.75;5058977;28;20029;-79
2022/04/26 10:34:29;;;;;;;4.57;1.88;;;;;;;12.78;33.22;101890.59;5056874;28;20073;-79
2022/04/26 10:37:08;;;;;;;2.37;1.10;;;;;;;12.97;32.43;101893.47;5053990;28;20033;-79
2022/04/26 10:39:44;;;;;;;7.38;1.65;;;;;;;12.92;32.27;101892.75;5041781;28;20051;-79
2022/04/26 10:42:13;;;;;;;7.28;1.88;;;;;;;12.57;32.20;101892.13;5041153;28;20040;-78
2022/04/26 10:44:41;;;;;;;12.50;2.60;;;;;;;13.58;31.66;101893.09;5022655;28;20040;-79
2022/04/26 10:47:14;;;;;;;7.10;2.25;;;;;;;13.30;31.63;101895.84;5059743;28;20153;-79
2022/04/26 10:49:43;;;;;;;8.07;2.35;;;;;;;13.72;31.03;101892.59;5017610;28;20056;-78
2022/04/26 10:52:14;;;;;;;5.07;1.73;;;;;;;14.13;30.22;101896.28;5014642;28;20056;-78
2022/04/26 10:54:46;;;;;;;;;;;;;;;13.47;31.48;101898.72;5022941;28;20134;-78
2022/04/26 10:57:18;;;;;;;4.18;1.23;;;;;;;13.10;31.95;101902.63;5040938;28;19944;-79
2022/04/26 10:59:45;;;;;;;7.25;2.20;;;;;;;12.67;32.37;101904.03;5037524;28;20136;-80
2022/04/26 11:02:22;;;;;;;6.03;1.63;;;;;;;12.41;32.90;101911.88;5058932;28;20060;-78
2022/04/26 11:04:57;;;;;;;4.50;1.45;;;;;;;12.32;32.40;101913.03;5057414;28;20040;-78
2022/04/26 11:07:26;;;;;;;2.83;1.60;;;;;;;13.17;31.21;101912.94;5057671;28;20052;-79
2022/04/26 11:09:54;;;;;;;5.28;1.48;;;;;;;13.52;31.22;101909.91;5056911;28;20119;-79
2022/04/26 11:12:24;;;;;;;8.20;1.55;;;;;;;12.98;30.78;101908.31;5036669;28;20045;-78
2022/04/26 11:14:53;;;;;;;2.80;1.48;;;;;;;13.08;30.98;101908.84;5038980;28;20515;-78
2022/04/26 11:17:22;;;;;;;4.25;1.65;;;;;;;13.36;30.78;101905.25;5043051;28;20075;-78
2022/04/26 11:20:17;;;;;;;6.53;1.15;;;;;;;13.80;31.64;101906.28;5037929;28;20310;-79
2022/04/26 11:22:44;;;;;;;5.57;1.50;;;;;;;14.71;30.09;101908.06;5025881;28;20045;-77
2022/04/26 11:28:08;;;;;;;5.35;1.83;;;;;;;14.71;29.87;101908.91;5046930;28;20115;-78
2022/04/26 11:30:46;;;;;;;4.28;1.75;;;;;;;13.87;30.10;101904.28;5062294;28;20037;-79
2022/04/26 11:33:20;;;;;;;4.82;1.80;;;;;;;14.23;29.93;101907.31;5036055;28;20048;-80
2022/04/26 11:36:08;;;;;;;6.28;1.58;;;;;;;13.90;29.64;101915.56;5040334;28;20057;-78
2022/04/26 11:38:33;;;;;;;3.00;1.20;;;;;;;14.28;30.35;101913.22;5032866;28;20033;-78
2022/04/26 11:41:02;;;;;;;2.67;1.27;;;;;;;14.61;29.04;101918.06;5036568;28;20049;-80
2022/04/26 11:43:33;;;;;;;3.55;1.63;;;;;;;14.35;29.25;101927.00;5057379;28;20041;-79
2022/04/26 11:45:59;;;;;;;9.95;2.00;;;;;;;13.21;30.91;101933.75;5062367;28;20037;-78
2022/04/26 11:48:29;;;;;;;9.77;2.60;;;;;;;13.42;30.85;101945.28;5045696;28;20048;-76
2022/04/26 11:50:56;;;;;;;8.93;2.03;;;;;;;14.15;30.83;101927.78;5061058;28;20038;-77
2022/04/26 11:53:27;;;;;;;7.78;1.63;;;;;;;13.40;30.74;101939.22;5046823;28;20044;-77
2022/04/26 11:56:00;;;;;;;6.55;1.50;;;;;;;13.46;31.27;101936.38;5046895;28;20495;-79
2022/04/26 11:58:34;;;;;;;6.25;1.52;;;;;;;14.22;29.65;101937.13;5041568;28;20108;-77
2022/04/26 12:01:02;;;;;;;4.90;1.38;;;;;;;14.43;29.87;101939.88;5041259;28;20038;-79
2022/04/26 12:03:34;;;;;;;6.88;2.08;;;;;;;15.51;28.10;101942.41;5046684;28;20037;-77
2022/04/26 12:06:02;;;;;;;9.48;2.03;;;;;;;14.41;29.15;101939.94;5066102;28;20075;-80
2022/04/26 12:27:33;;;;;;;8.73;1.83;;;;;;;13.47;30.72;101946.00;4998553;28;20052;-78
2022/04/26 12:29:58;;;;;;;5.00;1.90;;;;;;;15.18;28.20;101944.69;5030311;28;20143;-78
2022/04/26 12:32:26;;;;;;;7.93;1.80;;;;;;;15.54;28.32;101947.53;5061080;28;20444;-77
2022/04/26 12:34:54;;;;;;;2.65;1.75;;;;;;;15.37;27.98;101948.28;5041574;28;20057;-77
2022/04/26 12:37:31;;;;;;;3.50;1.70;;;;;;;15.95;27.52;101941.31;5033312;28;20040;-78
2022/04/26 12:40:04;;;;;;;4.70;1.42;;;;;;;16.00;27.44;101940.22;5046983;28;20052;-77
2022/04/26 12:42:34;;;;;;;2.75;1.17;;;;;;;16.11;26.76;101947.66;5048596;28;20069;-77
2022/04/26 12:45:05;;;;;;;3.50;1.33;;;;;;;16.10;27.65;101943.28;5053980;28;20036;-76
2022/04/26 12:50:28;;;;;;;5.82;1.35;;;;;;;15.96;27.28;101943.91;5044742;28;20041;-74
2022/04/26 12:53:08;;;;;;;4.70;1.48;;;;;;;16.23;28.58;101951.47;5025564;28;20055;-77
2022/04/26 12:55:37;;;;;;;6.40;1.88;;;;;;;16.07;26.89;101947.88;5036962;28;20035;-78
2022/04/26 12:58:17;;;;;;;2.80;1.35;;;;;;;14.94;28.83;101951.84;5063842;28;20064;-76
2022/04/26 13:00:50;;;;;;;7.95;1.38;;;;;;;14.82;28.93;101957.63;5063759;28;20035;-79
2022/04/26 13:03:19;;;;;;;2.90;1.20;;;;;;;14.72;28.77;101946.59;5065770;28;20036;-75
2022/04/26 13:05:54;;;;;;;4.03;2.25;;;;;;;13.95;29.51;101949.56;5027375;28;20601;-79
2022/04/26 13:08:20;;;;;;;5.47;1.77;;;;;;;13.58;30.82;101955.28;5043809;28;20037;-78
2022/04/26 13:10:47;;;;;;;5.82;1.88;;;;;;;13.86;30.79;101956.00;5058096;28;20096;-79
2022/04/26 13:13:14;;;;;;;6.28;1.58;;;;;;;14.92;29.32;101953.66;5040247;28;20045;-79
2022/04/26 13:15:43;;;;;;;2.70;1.10;;;;;;;;;;5044563;28;20096;-76
2022/04/26 13:18:12;;;;;;;2.05;0.90;;;;;;;15.48;26.25;101953.09;5064565;28;20449;-79
2022/04/26 13:20:38;;;;;;;2.78;1.20;;;;;;;15.68;26.34;101951.34;5030529;28;20032;-76
2022/04/26 13:23:04;;;;;;;1.60;0.70;;;;;;;15.97;26.50;101950.91;5022253;28;20048;-77
2022/04/26 13:25:30;;;;;;;2.65;1.15;;;;;;;15.74;26.17;101948.44;5042454;28;20025;-77
2022/04/26 13:27:57;;;;;;;4.90;0.80;;;;;;;15.41;26.68;101953.41;5045475;28;20033;-76
2022/04/26 13:30:24;;;;;;;1.88;1.02;;;;;;;15.35;26.73;101957.19;5032029;28;20033;-77
2022/04/26 13:32:49;;;;;;;3.33;1.25;;;;;;;15.30;26.93;101951.22;5033198;28;20118;-78
2022/04/26 13:35:15;;;;;;;6.53;1.08;;;;;;;15.32;25.79;101959.94;5045936;28;20028;-78
2022/04/26 13:37:43;;;;;;;4.82;1.17;;;;;;;16.04;24.98;101951.50;5034186;28;20036;-76
2022/04/26 13:40:09;;;;;;;3.67;1.10;;;;;;;15.99;26.05;101949.03;5060378;28;20118;-80
2022/04/26 13:42:35;;;;;;;2.63;0.82;;;;;;;16.04;26.63;101955.91;5025555;28;20048;-77
2022/04/26 13:45:02;;;;;;;2.38;1.25;;;;;;;15.85;25.96;101951.44;5042031;28;20037;-77
2022/04/26 13:47:28;;;;;;;3.42;0.93;;;;;;;15.92;26.37;101955.50;5044038;28;20045;-79
2022/04/26 13:49:54;;;;;;;1.45;0.63;;;;;;;15.96;25.66;101964.13;5022697;28;20386;-79
2022/04/26 13:52:21;;;;;;;4.82;1.45;;;;;;;14.96;26.94;101950.00;5030041;28;20132;-78
2022/04/26 13:54:48;;;;;;;2.70;0.50;;;;;;;15.44;26.51;101951.50;5063314;28;20108;-79
2022/04/26 13:57:14;;;;;;;5.45;1.27;;;;;;;15.94;26.30;101945.75;5030761;28;20053;-76
2022/04/26 13:59:40;;;;;;;6.38;1.13;;;;;;;15.57;27.13;101947.41;5032530;28;20052;-75
2022/04/26 14:02:07;;;;;;;4.10;0.77;;;;;;;15.93;26.98;101954.59;5048563;28;20054;-75
2022/04/26 14:04:34;;;;;;;5.80;1.08;;;;;;;16.03;26.05;101949.78;5071380;28;20032;-78
2022/04/26 14:07:00;;;;;;;4.47;1.15;;;;;;;15.65;26.72;101947.06;5049851;28;20041;-76
2022/04/26 14:09:26;;;;;;;4.05;0.85;;;;;;;15.24;25.96;101949.72;5047112;28;20025;-78
2022/04/26 14:11:54;;;;;;;3.15;0.93;;;;;;;14.79;26.74;101957.72;5034499;28;20040;-77
2022/04/26 14:22:33;;;;;;;3.75;0.68;;;;;;;15.24;25.75;101965.53;5050078;28;20045;-78
2022/04/26 14:25:00;;;;;;;2.90;0.70;;;;;;;14.96;24.74;101968.44;5042540;28;20082;-78
2022/04/26 14:27:27;;;;;;;3.20;1.20;;;;;;;14.54;27.19;101963.97;5031006;28;20041;-75
2022/04/26 14:29:53;;;;;;;4.53;0.85;;;;;;;13.83;27.31;101971.00;5031137;28;20151;-80
2022/04/26 14:32:18;;;;;;;3.55;0.98;;;;;;;12.32;29.35;101977.72;5031223;28;20045;-78
2022/04/26 14:34:45;;;;;;;3.80;1.58;;;;;;;12.97;28.88;101968.72;5045747;28;20036;-79
2022/04/26 14:37:12;;;;;;;3.35;0.63;;;;;;;13.17;28.57;101971.53;5036438;28;20593;-76
2022/04/26 14:39:38;;;;;;;5.97;1.77;;;;;;;13.43;28.99;101977.63;5071313;28;20035;-77
2022/04/26 14:42:10;;;;;;;5.93;0.90;;;;;;;13.20;28.77;101984.53;5049205;28;20037;-78
2022/04/26 14:44:37;;;;;;;2.47;0.75;;;;;;;12.87;30.21;101979.50;5052065;28;20036;-77
2022/04/26 14:47:03;;;;;;;6.10;0.95;;;;;;;13.21;28.99;101973.16;5052572;28;20124;-76
2022/04/26 14:49:30;;;;;;;5.45;0.60;;;;;;;13.75;27.82;101973.94;5038457;28;20028;-77
2022/04/26 14:51:56;;;;;;;4.15;0.90;;;;;;;14.25;27.68;101979.06;5044083;28;20029;-78
2022/04/26 14:54:22;;;;;;;4.45;0.93;;;;;;;13.66;28.22;101984.78;5047541;28;20032;-77
2022/04/26 14:56:49;;;;;;;3.38;0.73;;;;;;;13.19;29.10;101985.47;5049259;28;20812;-75
2022/04/26 14:59:17;;;;;;;2.05;0.95;;;;;;;13.54;28.74;101983.41;5047258;28;20059;-79
2022/04/26 15:01:45;;;;;;;5.35;1.27;;;;;;;13.71;27.91;101978.44;5035671;28;20033;-78
2022/04/26 15:04:12;;;;;;;3.40;0.68;;;;;;;13.61;27.98;101984.09;5047754;28;20105;-79
2022/04/26 15:06:37;;;;;;;2.35;0.65;;;;;;;13.73;26.78;101975.75;5045667;28;20039;-77
2022/04/26 15:11:47;;;;;;;7.45;0.60;;;;;;;13.10;27.85;101960.38;5043529;28;20043;-77
2022/04/26 15:41:34;;;;;;;2.83;0.55;;;;;;;13.76;26.79;101980.03;5049167;28;20095;-76
2022/04/26 15:44:12;;;;;;;2.40;0.68;;;;;;;13.55;27.93;101989.50;5029315;28;20040;-76
2022/04/26 15:46:39;;;;;;;3.33;0.63;;;;;;;12.74;29.03;101979.97;5048893;28;20043;-79
2022/04/26 15:49:04;;;;;;;2.47;0.60;;;;;;;12.14;30.08;101986.97;5062659;28;20145;-79
2022/04/26 15:51:30;;;;;;;5.60;0.60;;;;;;;12.68;28.72;101984.44;5047879;28;20039;-77
2022/04/26 15:53:55;;;;;;;1.85;0.95;;;;;;;12.39;29.13;101989.72;5060214;28;20053;-76
2022/04/26 15:56:21;;;;;;;5.57;0.70;;;;;;;12.03;29.28;101982.03;5045262;28;20052;-77
2022/04/26 15:58:47;;;;;;;4.13;1.00;;;;;;;12.33;29.08;101992.50;5031144;28;20595;-76
2022/04/26 16:01:15;;;;;;;1.65;0.50;;;;;;;11.75;30.46;101987.13;5050109;28;20334;-77
2022/04/26 16:03:46;;;;;;;8.60;0.70;;;;;;;11.73;31.19;101997.69;5017777;28;20041;-76
2022/04/26 16:06:12;;;;;;;1.37;0.50;;;;;;;11.93;30.80;101988.41;5052743;28;20029;-75
2022/04/26 16:08:38;;;;;;;4.63;1.17;;;;;;;12.60;29.66;101994.31;5034851;28;20052;-76
2022/04/26 16:22:04;;;;;;;4.05;0.88;;;;;;;12.08;30.50;102003.72;5049527;28;20029;-77
2022/04/26 16:24:29;;;;;;;4.78;0.93;;;;;;;11.70;30.08;101997.72;5031430;28;20096;-78
2022/04/26 16:26:58;;;;;;;0.77;0.30;;;;;;;12.08;29.24;102003.72;5033644;28;20067;-77
2022/04/26 16:29:25;;;;;;;3.33;0.80;;;;;;;11.77;30.22;101994.06;5068363;28;20036;-79
2022/04/26 16:31:51;;;;;;;3.97;0.77;;;;;;;11.69;30.41;102001.28;5045161;28;20096;-75
2022/04/26 16:34:17;;;;;;;5.40;0.60;;;;;;;11.80;30.95;102008.88;5034080;28;20110;-74
2022/04/26 16:36:45;;;;;;;4.15;0.70;;;;;;;11.03;31.49;102005.53;5049105;28;20457;-78
2022/04/26 16:39:11;;;;;;;2.15;0.50;;;;;;;10.82;32.20;102001.69;5026398;28;20152;-76
2022/04/26 16:41:38;;;;;;;4.22;0.82;;;;;;;11.24;32.33;102012.00;5046363;28;20116;-81
2022/04/26 16:44:04;;;;;;;6.07;0.75;;;;;;;11.41;31.57;102009.81;5028143;28;20448;-80
2022/04/26 16:46:32;;;;;;;4.28;0.80;;;;;;;11.27;31.66;102011.94;5030133;28;20124;-78
2022/04/26 16:49:01;;;;;;;3.10;0.43;;;;;;;10.81;31.99;102015.59;5042948;28;20052;-79
2022/04/26 16:51:29;;;;;;;4.25;0.88;;;;;;;10.73;32.12;102014.94;5061002;28;20043;-78
2022/04/26 16:53:55;;;;;;;3.95;0.68;;;;;;;10.30;33.90;102019.31;5042981;28;20051;-80
2022/04/26 16:56:21;;;;;;;1.70;0.47;;;;;;;10.85;32.19;102022.53;5028550;28;20033;-77
2022/04/26 16:58:47;;;;;;;1.40;0.57;;;;;;;10.87;32.79;102022.50;5043461;28;20080;-78
2022/04/26 17:01:12;;;;;;;2.33;0.80;;;;;;;10.91;32.20;102025.00;5048084;28;20074;-76
2022/04/26 17:03:41;;;;;;;5.95;0.95;;;;;;;11.00;32.64;102018.72;5045361;28;20042;-79
2022/04/26 17:06:07;;;;;;;5.47;1.70;;;;;;;11.02;33.21;102025.63;5030286;28;20112;-79
2022/04/26 17:08:33;;;;;;;4.40;0.70;;;;;;;11.08;33.13;102028.97;5043755;28;20064;-79
2022/04/26 17:13:50;;;;;;;;;;;;;;;10.21;35.09;102043.91;5030539;28;20041;-79
2022/04/26 17:16:16;;;;;;;3.22;0.40;;;;;;;10.27;34.25;102034.22;5046400;28;19985;-80
2022/04/26 17:18:44;;;;;;;7.63;1.52;;;;;;;10.79;33.76;102038.31;5048328;28;20041;-78
2022/04/26 17:21:10;;;;;;;2.97;0.68;;;;;;;10.75;33.90;102041.88;5062298;28;20037;-79
2022/04/26 17:23:36;;;;;;;3.33;0.50;;;;;;;10.68;34.24;102038.56;5044801;28;20044;-77
2022/04/26 17:26:01;;;;;;;5.60;1.25;;;;;;;10.06;35.76;102038.97;5048749;28;20032;-76
2022/04/26 17:28:27;;;;;;;8.23;0.80;;;;;;;10.47;35.10;102032.03;5034145;28;20044;-78
2022/04/26 17:30:52;;;;;;;5.45;0.57;;;;;;;10.27;35.65;102044.66;5033232;28;20052;-77
2022/04/26 17:33:18;;;;;;;4.80;0.88;;;;;;;10.06;35.83;102041.59;5049377;28;20076;-79
2022/04/26 17:35:44;;;;;;;5.65;0.93;;;;;;;10.08;35.46;102045.03;5035482;28;20071;-79
2022/04/26 17:38:09;;;;;;;4.10;0.73;;;;;;;9.87;36.25;102046.28;5029235;28;20049;-79
2022/04/26 17:40:35;;;;;;;6.85;1.30;;;;;;;9.02;37.71;102054.63;5052096;28;20296;-77
2022/04/26 17:43:02;;;;;;;3.45;0.80;;;;;;;9.28;37.81;102061.19;5032990;28;22514;-77
2022/04/26 17:45:29;;;;;;;4.38;0.60;;;;;;;8.86;38.37;102058.34;5041724;28;20055;-78
2022/04/26 17:47:54;;;;;;;2.80;0.77;;;;;;;9.28;37.45;102067.28;5036872;28;20052;-77
2022/04/26 17:50:20;;;;;;;4.63;1.05;;;;;;;9.00;38.07;102065.94;5051831;28;20040;-80
2022/04/26 17:58:14;;;;;;;7.70;1.30;;;;;;;8.51;39.79;102073.50;5065364;28;20043;-79
2022/04/26 18:04:52;;;;;;;6.65;1.52;;;;;;;8.52;39.96;102075.25;5016362;28;20106;-76
2022/04/26 18:07:20;;;;;;;2.75;1.40;;;;;;;8.09;40.73;102078.34;5053645;28;20041;-79
2022/04/26 18:09:45;;;;;;;8.75;1.98;;;;;;;8.32;40.21;102087.63;5083553;28;20032;-75
2022/04/26 18:12:14;;;;;;;6.88;1.45;;;;;;;8.08;40.28;102092.22;5037460;28;20506;-78
2022/04/26 18:14:40;;;;;;;2.53;1.33;;;;;;;8.15;40.30;102091.25;5028638;28;20128;-79
2022/04/26 18:17:06;;;;;;;4.75;1.95;;;;;;;8.15;40.30;102091.25;5049741;28;20064;-77
2022/04/26 18:26:58;;;;;;;8.10;2.17;;;;;;;7.81;40.77;102105.50;5044868;28;20045;-77
2022/04/26 18:29:24;;;;;;;5.75;1.48;;;;;;;7.90;40.89;102110.63;5051203;28;20055;-77
2022/04/26 18:36:24;;;;;;;6.93;2.67;;;;;;;7.65;41.46;102125.59;5046114;28;20051;-75
2022/04/26 18:39:36;;;;;;;6.00;2.17;;;;;;;7.43;41.83;102127.44;5014795;28;20495;-76
2022/04/26 18:42:04;;;;;;;4.43;1.95;;;;;;;7.43;42.15;102130.03;5040822;28;20128;-77
2022/04/26 18:44:30;;;;;;;6.10;2.03;;;;;;;7.45;41.91;102133.50;5040789;28;20094;-77
2022/04/26 18:46:55;;;;;;;8.18;2.17;;;;;;;7.15;43.03;102125.00;5060873;28;20041;-77
2022/04/26 18:49:36;;;;;;;4.22;2.08;;;;;;;7.28;42.27;102137.06;5051194;28;20029;-75